createdAt,value
2023-05-23T00:02:25.761Z,84.20
2023-05-23T00:04:58.347Z,84.30
2023-05-23T00:07:26.326Z,84.40
2023-05-23T00:09:54.238Z,84.50
2023-05-23T00:12:22.412Z,84.40
2023-05-23T00:14:50.346Z,84.50
2023-05-23T00:17:18.360Z,84.50
2023-05-23T00:19:46.525Z,84.50
2023-05-23T00:22:16.730Z,84.50
2023-05-23T00:24:45.416Z,84.60
2023-05-23T00:27:13.285Z,84.80
2023-05-23T00:29:41.195Z,84.70
2023-05-23T00:32:09.102Z,84.70
2023-05-23T00:34:37.715Z,84.70
2023-05-23T00:37:06.543Z,84.80
2023-05-23T00:39:35.777Z,84.70
2023-05-23T00:42:06.538Z,84.90
2023-05-23T00:44:34.412Z,84.70
2023-05-23T00:47:02.494Z,84.80
2023-05-23T00:49:30.815Z,85.00
2023-05-23T00:51:58.925Z,84.90
2023-05-23T00:54:29.519Z,84.90
2023-05-23T00:57:01.925Z,84.90
2023-05-23T00:59:31.188Z,84.80
2023-05-23T01:02:01.706Z,85.00
2023-05-23T01:04:30.197Z,84.80
2023-05-23T01:06:58.838Z,84.90
2023-05-23T01:09:31.761Z,85.00
2023-05-23T01:12:16.821Z,85.00
2023-05-23T01:14:54.852Z,85.00
2023-05-23T01:17:31.602Z,85.00
2023-05-23T01:20:04.268Z,85.10
2023-05-23T01:22:44.276Z,85.10
2023-05-23T01:25:29.276Z,85.20
2023-05-23T01:28:04.459Z,85.20
2023-05-23T01:30:37.514Z,85.30
2023-05-23T01:33:09.065Z,85.60
2023-05-23T01:35:37.885Z,85.70
2023-05-23T01:38:05.990Z,85.80
2023-05-23T01:40:35.883Z,85.80
2023-05-23T01:43:05.863Z,86.00
2023-05-23T01:45:35.022Z,85.90
2023-05-23T01:48:08.206Z,85.80
2023-05-23T01:50:36.744Z,85.80
2023-05-23T01:53:08.309Z,85.70
2023-05-23T01:55:36.936Z,85.70
2023-05-23T01:58:14.646Z,85.80
2023-05-23T02:00:44.408Z,85.90
2023-05-23T02:03:12.863Z,85.80
2023-05-23T02:05:41.350Z,85.80
2023-05-23T02:08:12.440Z,85.80
2023-05-23T02:10:40.644Z,85.80
2023-05-23T02:13:12.652Z,85.80
2023-05-23T02:15:41.053Z,86.60
2023-05-23T02:18:09.434Z,85.80
2023-05-23T02:20:40.221Z,85.90
2023-05-23T02:23:08.483Z,85.90
2023-05-23T02:25:40.971Z,85.80
2023-05-23T02:28:13.797Z,85.90
2023-05-23T02:30:41.957Z,86.10
2023-05-23T02:33:13.012Z,86.00
2023-05-23T02:35:42.468Z,86.20
2023-05-23T02:38:10.840Z,86.10
2023-05-23T02:40:39.016Z,86.30
2023-05-23T02:43:11.193Z,86.40
2023-05-23T02:45:44.180Z,86.70
2023-05-23T02:48:12.940Z,86.90
2023-05-23T02:50:41.251Z,87.10
2023-05-23T02:53:09.256Z,87.20
2023-05-23T02:55:40.510Z,87.20
2023-05-23T02:58:09.073Z,87.30
2023-05-23T03:00:37.719Z,88.10
2023-05-23T03:03:07.357Z,87.80
2023-05-23T03:05:37.525Z,88.00
2023-05-23T03:08:07.329Z,87.80
2023-05-23T03:10:35.464Z,87.90
2023-05-23T03:13:03.677Z,88.20
2023-05-23T03:15:31.724Z,88.10
2023-05-23T03:18:00.649Z,88.00
2023-05-23T03:20:30.277Z,87.80
2023-05-23T03:22:58.317Z,87.80
2023-05-23T03:25:30.007Z,87.90
2023-05-23T03:28:02.447Z,87.80
2023-05-23T03:30:30.480Z,87.90
2023-05-23T03:32:58.538Z,87.90
2023-05-23T03:35:31.094Z,88.00
2023-05-23T03:37:59.106Z,88.40
2023-05-23T03:40:27.193Z,88.10
2023-05-23T03:43:05.077Z,87.60
2023-05-23T03:45:33.487Z,88.00
2023-05-23T03:48:01.967Z,87.80
2023-05-23T03:50:34.322Z,87.40
2023-05-23T03:53:02.386Z,87.30
2023-05-23T03:55:33.039Z,87.20
2023-05-23T03:58:03.067Z,87.10
2023-05-23T04:00:31.188Z,87.10
2023-05-23T04:02:59.356Z,86.90
2023-05-23T04:05:35.516Z,86.90
2023-05-23T04:08:06.914Z,86.90
2023-05-23T04:10:35.016Z,86.90
2023-05-23T04:13:02.913Z,86.80
2023-05-23T04:15:31.195Z,86.90
2023-05-23T04:17:59.654Z,87.00
2023-05-23T04:20:27.713Z,86.80
2023-05-23T04:22:59.181Z,86.90
2023-05-23T04:25:31.574Z,87.00
2023-05-23T04:27:59.796Z,86.90
2023-05-23T04:30:30.424Z,86.90
2023-05-23T04:33:00.471Z,86.80
2023-05-23T04:35:29.660Z,86.80
2023-05-23T04:37:59.082Z,86.90
2023-05-23T04:40:31.687Z,86.80
2023-05-23T04:43:02.758Z,86.80
2023-05-23T04:45:30.723Z,87.00
2023-05-23T04:47:59.121Z,87.60
2023-05-23T04:50:28.701Z,86.90
2023-05-23T04:52:58.228Z,86.90
2023-05-23T04:55:26.609Z,86.80
2023-05-23T04:57:54.932Z,87.00
2023-05-23T05:00:23.107Z,87.10
2023-05-23T05:02:51.466Z,87.10
2023-05-23T05:05:19.540Z,87.00
2023-05-23T05:07:47.585Z,87.10
2023-05-23T05:10:17.919Z,87.00
2023-05-23T05:12:46.876Z,87.10
2023-05-23T05:15:15.412Z,87.10
2023-05-23T05:17:46.473Z,87.10
2023-05-23T05:20:16.236Z,87.00
2023-05-23T05:22:44.640Z,87.00
2023-05-23T05:25:13.246Z,87.00
2023-05-23T05:27:43.633Z,87.00
2023-05-23T05:30:12.472Z,87.10
2023-05-23T05:32:40.616Z,87.20
2023-05-23T05:35:10.101Z,87.80
2023-05-23T05:37:38.106Z,87.10
2023-05-23T05:40:08.409Z,87.10
2023-05-23T05:42:36.562Z,87.10
2023-05-23T05:45:06.906Z,87.00
2023-05-23T05:47:35.043Z,87.90
2023-05-23T05:50:03.702Z,87.30
2023-05-23T05:52:31.619Z,87.20
2023-05-23T05:54:59.660Z,87.10
2023-05-23T05:57:27.842Z,87.10
2023-05-23T05:59:55.942Z,87.00
2023-05-23T06:02:25.420Z,87.10
2023-05-23T06:04:53.756Z,87.10
2023-05-23T06:07:21.918Z,87.00
2023-05-23T06:09:49.942Z,87.00
2023-05-23T06:12:17.903Z,87.00
2023-05-23T06:14:46.060Z,87.30
2023-05-23T06:17:16.286Z,87.20
2023-05-23T06:19:48.595Z,87.30
2023-05-23T06:22:18.729Z,87.30
2023-05-23T06:24:47.480Z,87.10
2023-05-23T06:27:15.692Z,87.30
2023-05-23T06:29:44.006Z,87.40
2023-05-23T06:32:16.098Z,87.50
2023-05-23T06:34:44.433Z,87.80
2023-05-23T06:37:13.832Z,87.70
2023-05-23T06:39:46.693Z,87.60
2023-05-23T06:42:15.203Z,88.00
2023-05-23T06:44:43.440Z,87.70
2023-05-23T06:47:12.061Z,87.80
2023-05-23T06:49:40.215Z,87.70
2023-05-23T06:52:23.144Z,87.90
2023-05-23T06:54:57.453Z,87.80
2023-05-23T06:57:30.350Z,87.80
2023-05-23T07:00:00.036Z,87.80
2023-05-23T07:02:31.542Z,87.90
2023-05-23T07:05:08.629Z,88.10
2023-05-23T07:07:40.974Z,88.20
2023-05-23T07:10:16.021Z,88.50
2023-05-23T07:12:50.351Z,88.20
2023-05-23T07:15:29.148Z,88.40
2023-05-23T07:18:00.488Z,88.20
2023-05-23T07:20:31.512Z,88.50
2023-05-23T07:23:04.037Z,88.70
2023-05-23T07:25:35.150Z,88.60
2023-05-23T07:28:14.742Z,88.70
2023-05-23T07:30:43.616Z,88.50
2023-05-23T07:33:14.056Z,88.60
2023-05-23T07:35:50.096Z,88.90
2023-05-23T07:38:21.037Z,88.80
2023-05-23T07:41:03.036Z,88.80
2023-05-23T07:43:35.345Z,88.70
2023-05-23T07:46:11.237Z,88.70
2023-05-23T07:48:51.197Z,89.10
2023-05-23T07:51:21.476Z,89.10
2023-05-23T07:53:52.047Z,89.10
2023-05-23T07:56:22.256Z,89.10
2023-05-23T07:58:59.521Z,89.30
2023-05-23T08:01:32.185Z,89.40
2023-05-23T08:04:07.500Z,89.30
2023-05-23T08:06:43.371Z,89.70
2023-05-23T08:09:29.776Z,90.00
2023-05-23T08:12:00.896Z,89.50
2023-05-23T08:14:49.918Z,89.80
2023-05-23T08:17:27.459Z,89.80
2023-05-23T08:20:00.612Z,90.00
2023-05-23T08:22:28.865Z,90.00
2023-05-23T08:25:00.621Z,89.80
2023-05-23T08:27:52.221Z,90.10
2023-05-23T08:30:24.348Z,90.20
2023-05-23T08:33:00.893Z,90.20
2023-05-23T08:35:37.984Z,90.20
2023-05-23T08:38:14.621Z,90.10
2023-05-23T08:40:51.706Z,90.10
2023-05-23T08:43:22.875Z,90.00
2023-05-23T08:45:53.627Z,90.10
2023-05-23T08:48:23.061Z,90.10
2023-05-23T08:50:56.062Z,90.20
2023-05-23T08:53:28.202Z,90.20
2023-05-23T08:56:02.538Z,90.10
2023-05-23T08:58:38.993Z,90.20
2023-05-23T09:01:10.839Z,90.20
2023-05-23T09:03:40.457Z,90.10
2023-05-23T09:06:10.847Z,90.10
2023-05-23T09:08:41.718Z,90.30
2023-05-23T09:11:17.196Z,90.20
2023-05-23T09:13:48.332Z,90.20
2023-05-23T09:16:20.430Z,90.70
2023-05-23T09:18:50.106Z,90.40
2023-05-23T09:21:22.392Z,90.20
2023-05-23T09:23:57.016Z,90.10
2023-05-23T09:26:28.041Z,90.30
2023-05-23T09:29:04.916Z,90.30
2023-05-23T09:31:46.046Z,90.30
2023-05-23T09:34:14.159Z,90.80
2023-05-23T09:36:44.315Z,90.30
2023-05-23T09:39:13.754Z,90.20
2023-05-23T09:41:58.578Z,90.20
2023-05-23T09:44:31.218Z,90.30
2023-05-23T09:46:59.461Z,90.20
2023-05-23T09:49:28.325Z,90.30
2023-05-23T09:52:04.853Z,90.20
2023-05-23T09:54:33.501Z,90.20
2023-05-23T09:57:13.666Z,90.20
2023-05-23T09:59:46.570Z,90.20
2023-05-23T10:02:20.040Z,90.30
2023-05-23T10:04:49.737Z,90.60
2023-05-23T10:07:22.402Z,90.20
2023-05-23T10:10:47.822Z,90.20
2023-05-23T10:13:52.927Z,90.30
2023-05-23T10:16:30.212Z,90.20
2023-05-23T10:19:12.338Z,90.40
2023-05-23T10:21:57.880Z,90.40
2023-05-23T10:24:39.911Z,90.60
2023-05-23T10:27:45.629Z,90.50
2023-05-23T10:31:00.421Z,90.70
2023-05-23T10:33:55.235Z,90.60
2023-05-23T10:36:53.181Z,90.60
2023-05-23T10:39:33.673Z,90.60
2023-05-23T10:42:07.573Z,90.60
2023-05-23T10:44:41.049Z,90.70
2023-05-23T10:47:09.589Z,90.70
2023-05-23T10:49:43.738Z,90.70
2023-05-23T10:52:18.956Z,90.70
2023-05-23T10:54:54.989Z,90.70
2023-05-23T10:57:26.997Z,90.60
2023-05-23T10:59:57.369Z,90.80
2023-05-23T11:02:27.970Z,90.70
2023-05-23T11:05:25.042Z,90.80
2023-05-23T11:08:10.137Z,90.80
2023-05-23T11:10:54.419Z,90.70
2023-05-23T11:13:25.797Z,90.90
2023-05-23T11:15:53.980Z,90.90
2023-05-23T11:18:27.614Z,90.80
2023-05-23T11:21:02.727Z,90.80
2023-05-23T11:23:43.085Z,90.80
2023-05-23T11:26:32.126Z,90.80
2023-05-23T11:29:04.288Z,90.80
2023-05-23T11:31:38.186Z,90.90
2023-05-23T11:34:07.902Z,90.90
2023-05-23T11:36:37.521Z,90.90
2023-05-23T11:39:05.690Z,91.00
2023-05-23T11:41:33.982Z,91.00
2023-05-23T11:44:02.261Z,90.90
2023-05-23T11:46:30.281Z,90.90
2023-05-23T11:48:58.634Z,90.80
2023-05-23T11:51:26.660Z,90.90
2023-05-23T11:53:56.010Z,90.80
2023-05-23T11:56:24.532Z,90.90
2023-05-23T11:58:53.012Z,90.80
2023-05-23T12:01:21.240Z,90.90
2023-05-23T12:03:53.173Z,90.90
2023-05-23T12:06:22.322Z,90.80
2023-05-23T12:08:50.522Z,90.80
2023-05-23T12:11:24.220Z,90.80
2023-05-23T12:13:54.192Z,90.80
2023-05-23T12:16:22.571Z,91.20
2023-05-23T12:18:53.693Z,90.70
2023-05-23T12:21:21.773Z,90.70
2023-05-23T12:23:53.136Z,90.70
2023-05-23T12:26:23.257Z,90.70
2023-05-23T12:28:51.505Z,90.70
2023-05-23T12:31:21.168Z,90.70
2023-05-23T12:33:50.500Z,90.60
2023-05-23T12:36:24.088Z,90.60
2023-05-23T12:38:52.194Z,90.60
2023-05-23T12:41:22.701Z,90.60
2023-05-23T12:43:52.416Z,90.60
2023-05-23T12:46:20.511Z,90.60
2023-05-23T12:48:48.524Z,90.60
2023-05-23T12:51:16.961Z,90.60
2023-05-23T12:53:45.426Z,90.60
2023-05-23T12:56:13.710Z,90.60
2023-05-23T12:58:43.512Z,90.60
2023-05-23T13:01:12.170Z,90.60
2023-05-23T13:03:40.285Z,90.60
2023-05-23T13:06:16.093Z,90.60
2023-05-23T13:08:44.116Z,90.50
2023-05-23T13:11:12.617Z,90.50
2023-05-23T13:13:43.021Z,90.60
2023-05-23T13:16:11.228Z,90.50
2023-05-23T13:18:39.330Z,90.50
2023-05-23T13:21:07.505Z,90.50
2023-05-23T13:23:37.420Z,90.50
2023-05-23T13:26:06.560Z,90.60
2023-05-23T13:28:38.661Z,90.60
2023-05-23T13:31:08.903Z,90.60
2023-05-23T13:33:38.173Z,90.60
2023-05-23T13:36:06.655Z,90.60
2023-05-23T13:38:34.724Z,90.60
2023-05-23T13:41:03.054Z,90.50
2023-05-23T13:43:31.134Z,90.60
2023-05-23T13:45:59.284Z,90.60
2023-05-23T13:48:28.629Z,90.50
2023-05-23T13:50:56.849Z,90.50
2023-05-23T13:53:26.237Z,90.50
2023-05-23T13:55:54.883Z,90.50
2023-05-23T13:58:22.926Z,90.50
2023-05-23T14:00:51.253Z,90.50
2023-05-23T14:03:20.025Z,90.40
2023-05-23T14:05:49.675Z,90.40
2023-05-23T14:08:20.320Z,90.30
2023-05-23T14:10:48.315Z,90.30
2023-05-23T14:13:16.459Z,90.30
2023-05-23T14:15:44.712Z,90.10
2023-05-23T14:18:15.038Z,90.10
2023-05-23T14:20:43.203Z,90.10
2023-05-23T14:23:12.670Z,90.00
2023-05-23T14:25:40.996Z,90.10
2023-05-23T14:28:09.231Z,89.90
2023-05-23T14:30:39.120Z,90.00
2023-05-23T14:33:10.544Z,89.90
2023-05-23T14:35:39.955Z,89.70
2023-05-23T14:38:08.286Z,89.70
2023-05-23T14:40:39.242Z,89.50
2023-05-23T14:43:10.200Z,89.70
2023-05-23T14:45:38.517Z,89.50
2023-05-23T14:48:11.529Z,89.50
2023-05-23T14:50:42.563Z,89.60
2023-05-23T14:53:11.060Z,89.50
2023-05-23T14:55:41.484Z,89.40
2023-05-23T14:58:09.851Z,89.50
2023-05-23T15:00:38.360Z,89.50
2023-05-23T15:03:06.663Z,89.70
2023-05-23T15:05:36.850Z,89.70
2023-05-23T15:08:07.755Z,89.30
2023-05-23T15:10:36.085Z,89.00
2023-05-23T15:13:08.337Z,88.90
2023-05-23T15:15:38.792Z,88.80
2023-05-23T15:18:09.923Z,89.20
2023-05-23T15:20:40.060Z,87.90
2023-05-23T15:23:11.507Z,87.80
2023-05-23T15:25:49.499Z,87.20
2023-05-23T15:28:34.512Z,87.10
2023-05-23T15:31:15.936Z,86.40
2023-05-23T15:34:08.366Z,86.20
2023-05-23T15:36:52.828Z,85.70
2023-05-23T15:40:04.475Z,85.90
2023-05-23T15:43:41.671Z,85.70
2023-05-23T15:46:26.261Z,85.50
2023-05-23T15:49:17.462Z,85.50
2023-05-23T15:52:06.807Z,84.40
2023-05-23T15:54:58.200Z,84.50
2023-05-23T15:58:40.793Z,83.70
2023-05-23T16:01:46.977Z,83.50
2023-05-23T16:04:26.567Z,84.20
2023-05-23T16:07:07.672Z,84.50
2023-05-23T16:09:53.723Z,84.20
2023-05-23T16:12:43.526Z,84.20
2023-05-23T16:15:29.452Z,84.80
2023-05-23T16:18:20.576Z,85.00
2023-05-23T16:21:41.409Z,85.10
2023-05-23T16:24:19.712Z,85.10
2023-05-23T16:26:47.528Z,85.00
2023-05-23T16:49:03.655Z,81.80
2023-05-23T16:51:37.839Z,81.80
2023-05-23T16:54:32.782Z,81.70
2023-05-23T17:00:41.494Z,81.80
2023-05-23T17:03:12.797Z,81.90
2023-05-23T17:06:51.503Z,81.60
2023-05-23T17:10:25.874Z,81.80
2023-05-23T17:13:02.049Z,81.70
2023-05-23T17:15:30.393Z,81.60
2023-05-23T17:18:08.313Z,81.80
2023-05-23T17:24:51.770Z,81.40
2023-05-23T17:27:56.226Z,81.30
2023-05-23T17:30:55.422Z,81.30
2023-05-23T17:33:30.399Z,81.20
2023-05-23T17:36:04.783Z,81.10
2023-05-23T17:38:33.500Z,79.50
2023-05-23T17:41:09.297Z,78.50
2023-05-23T17:43:47.659Z,78.60
2023-05-23T17:46:21.068Z,77.30
2023-05-23T17:48:51.577Z,77.90
2023-05-23T17:51:26.582Z,76.50
2023-05-23T17:53:55.431Z,77.70
2023-05-23T17:56:32.276Z,78.80
2023-05-23T17:59:12.925Z,79.00
2023-05-23T18:02:01.693Z,79.00
2023-05-23T18:04:32.553Z,78.80
2023-05-23T18:07:00.813Z,78.60
2023-05-23T18:09:42.346Z,78.50
2023-05-23T18:12:16.984Z,78.00
2023-05-23T18:14:52.996Z,77.10
2023-05-23T18:17:24.945Z,77.20
2023-05-23T18:26:20.776Z,74.20
2023-05-23T18:29:23.615Z,73.90
2023-05-23T18:32:12.680Z,74.00
2023-05-23T18:34:44.238Z,73.50
2023-05-23T18:37:58.761Z,73.40
2023-05-23T18:40:35.080Z,74.30
2023-05-23T18:43:07.197Z,74.80
2023-05-23T18:45:48.194Z,73.90
2023-05-23T18:48:19.006Z,73.90
2023-05-23T18:50:51.701Z,73.70
2023-05-23T18:53:21.812Z,73.30
2023-05-23T18:56:00.612Z,73.20
2023-05-23T18:58:33.873Z,74.40
2023-05-23T19:01:35.384Z,73.40
2023-05-23T19:04:47.483Z,74.60
2023-05-23T19:07:42.657Z,73.70
2023-05-23T19:10:47.941Z,71.50
2023-05-23T19:16:14.189Z,73.50
2023-05-23T19:19:04.104Z,73.10
2023-05-23T19:22:08.650Z,73.90
2023-05-23T19:24:55.995Z,75.10
2023-05-23T19:28:26.771Z,73.30
2023-05-23T19:31:59.187Z,73.80
2023-05-23T19:35:22.539Z,72.10
2023-05-23T19:38:44.250Z,74.60
2023-05-23T19:41:34.120Z,72.70
2023-05-23T19:44:05.035Z,72.30
2023-05-23T19:46:40.868Z,72.00
2023-05-23T19:49:19.308Z,73.00
2023-05-23T19:51:48.823Z,73.60
2023-05-23T19:54:17.692Z,73.90
2023-05-23T19:56:52.311Z,74.20
2023-05-23T19:59:23.145Z,75.10
2023-05-23T20:01:56.605Z,74.60
2023-05-23T20:04:31.221Z,74.60
2023-05-23T20:07:02.456Z,75.00
2023-05-23T20:09:36.300Z,74.30
2023-05-23T20:12:07.910Z,75.70
2023-05-23T20:14:36.093Z,75.40
2023-05-23T20:17:09.113Z,75.10
2023-05-23T20:19:40.180Z,75.20
2023-05-23T20:22:16.270Z,74.90
2023-05-23T20:24:47.856Z,75.00
2023-05-23T20:27:19.197Z,75.20
2023-05-23T20:29:54.302Z,75.20
2023-05-23T20:32:28.979Z,74.90
2023-05-23T20:34:59.781Z,75.20
2023-05-23T20:37:30.890Z,75.50
2023-05-23T20:40:00.531Z,74.80
2023-05-23T20:42:36.468Z,74.90
2023-05-23T20:45:16.773Z,74.80
2023-05-23T20:47:47.377Z,74.80
2023-05-23T20:50:19.278Z,75.60
2023-05-23T20:53:11.687Z,76.10
2023-05-23T20:56:24.683Z,75.20
2023-05-23T20:58:38.465Z,75.30
2023-05-23T21:01:06.923Z,75.70
2023-05-23T21:03:41.446Z,75.50
2023-05-23T21:06:09.973Z,75.00
2023-05-23T21:08:40.709Z,75.20
2023-05-23T21:11:10.548Z,75.20
2023-05-23T21:13:40.534Z,75.40
2023-05-23T21:16:15.208Z,75.70
2023-05-23T21:18:43.435Z,75.40
2023-05-23T21:21:11.610Z,74.90
2023-05-23T21:23:39.747Z,75.10
2023-05-23T21:26:07.964Z,75.90
2023-05-23T21:28:36.129Z,75.60
2023-05-23T21:31:07.930Z,75.40
2023-05-23T21:33:36.239Z,75.00
2023-05-23T21:36:04.534Z,75.10
2023-05-23T21:38:37.424Z,75.00
2023-05-23T21:41:08.871Z,74.90
2023-05-23T21:43:38.983Z,75.20
2023-05-23T21:46:10.300Z,74.90
2023-05-23T21:48:41.012Z,74.90
2023-05-23T21:51:12.270Z,75.20
2023-05-23T21:53:40.509Z,74.70
2023-05-23T21:56:08.833Z,75.40
2023-05-23T21:58:39.947Z,75.90
2023-05-23T22:01:09.443Z,75.50
2023-05-23T22:03:37.920Z,75.90
2023-05-23T22:06:06.990Z,75.60
2023-05-23T22:08:35.234Z,75.20
2023-05-23T22:11:05.218Z,75.20
2023-05-23T22:13:35.119Z,75.60
2023-05-23T22:16:05.304Z,76.00
2023-05-23T22:18:51.184Z,75.70
2023-05-23T22:21:20.676Z,75.70
2023-05-23T22:23:52.113Z,75.80
2023-05-23T22:26:20.659Z,76.10
2023-05-23T22:28:48.935Z,75.70
2023-05-23T22:31:20.127Z,75.70
2023-05-23T22:33:49.603Z,75.90
2023-05-23T22:36:17.696Z,76.10
2023-05-23T22:38:50.136Z,76.10
2023-05-23T22:41:19.076Z,76.10
2023-05-23T22:43:50.127Z,76.60
2023-05-23T22:46:18.447Z,76.50
2023-05-23T22:48:52.478Z,76.60
2023-05-23T22:51:23.560Z,76.30
2023-05-23T22:53:53.879Z,76.60
2023-05-23T22:56:22.051Z,76.70
2023-05-23T22:58:50.137Z,76.80
2023-05-23T23:01:18.409Z,77.10
2023-05-23T23:03:48.559Z,77.30
2023-05-23T23:06:21.292Z,77.30
2023-05-23T23:08:50.000Z,77.30
2023-05-23T23:11:18.137Z,77.10
2023-05-23T23:13:46.328Z,77.50
2023-05-23T23:16:19.237Z,77.50
2023-05-23T23:18:49.349Z,77.60
2023-05-23T23:21:18.873Z,77.20
2023-05-23T23:23:47.217Z,77.40
2023-05-23T23:26:18.051Z,77.70
2023-05-23T23:28:46.366Z,77.50
2023-05-23T23:31:14.574Z,77.80
2023-05-23T23:33:42.620Z,77.60
2023-05-23T23:36:13.739Z,77.60
2023-05-23T23:38:44.499Z,77.80
2023-05-23T23:41:15.238Z,77.80
2023-05-23T23:43:48.470Z,77.90
2023-05-23T23:46:20.976Z,77.80
2023-05-23T23:48:51.938Z,78.10
2023-05-23T23:51:23.274Z,77.90
2023-05-23T23:53:53.525Z,78.00
2023-05-23T23:56:24.785Z,78.10
2023-05-23T23:58:52.982Z,78.40
